createdAt,value
2023-01-30T00:01:24.480Z,100.00
2023-01-30T00:03:52.790Z,100.00
2023-01-30T00:06:20.774Z,100.00
2023-01-30T00:08:48.375Z,100.00
2023-01-30T00:11:17.800Z,100.00
2023-01-30T00:13:46.001Z,100.00
2023-01-30T00:16:13.654Z,100.00
2023-01-30T00:18:43.459Z,100.00
2023-01-30T00:21:13.934Z,100.00
2023-01-30T00:23:42.334Z,100.00
2023-01-30T00:26:11.544Z,99.88
2023-01-30T00:28:39.442Z,99.24
2023-01-30T00:31:07.840Z,100.00
2023-01-30T00:33:38.013Z,100.00
2023-01-30T00:36:08.474Z,100.00
2023-01-30T00:38:36.676Z,100.00
2023-01-30T00:41:04.830Z,98.68
2023-01-30T00:43:34.090Z,95.08
2023-01-30T00:46:04.611Z,94.74
2023-01-30T00:48:32.223Z,95.39
2023-01-30T00:50:59.963Z,98.07
2023-01-30T00:53:29.006Z,98.26
2023-01-30T00:55:56.969Z,95.72
2023-01-30T00:58:25.125Z,95.88
2023-01-30T01:00:53.326Z,95.69
2023-01-30T01:03:21.606Z,98.98
2023-01-30T01:05:49.346Z,100.00
2023-01-30T01:08:17.016Z,100.00
2023-01-30T01:10:45.969Z,100.00
2023-01-30T01:13:13.562Z,100.00
2023-01-30T01:15:41.133Z,100.00
2023-01-30T01:18:09.734Z,100.00
2023-01-30T01:20:37.535Z,100.00
2023-01-30T01:23:05.104Z,100.00
2023-01-30T01:25:32.703Z,100.00
2023-01-30T01:28:02.077Z,100.00
2023-01-30T01:30:29.727Z,100.00
2023-01-30T01:32:57.608Z,100.00
2023-01-30T01:35:25.164Z,100.00
2023-01-30T01:37:53.362Z,100.00
2023-01-30T01:40:23.370Z,100.00
2023-01-30T01:42:51.133Z,100.00
2023-01-30T01:45:23.350Z,100.00
2023-01-30T01:48:03.145Z,100.00
2023-01-30T01:50:42.399Z,100.00
2023-01-30T01:53:13.527Z,100.00
2023-01-30T01:55:44.875Z,100.00
2023-01-30T01:58:18.531Z,100.00
2023-01-30T02:00:49.075Z,100.00
2023-01-30T02:03:23.730Z,100.00
2023-01-30T02:05:55.576Z,100.00
2023-01-30T02:08:27.632Z,100.00
2023-01-30T02:11:03.227Z,100.00
2023-01-30T02:13:33.044Z,100.00
2023-01-30T02:16:03.864Z,100.00
2023-01-30T02:18:34.273Z,100.00
2023-01-30T02:21:27.488Z,100.00
2023-01-30T02:24:31.229Z,100.00
2023-01-30T02:27:24.365Z,100.00
2023-01-30T02:30:27.100Z,100.00
2023-01-30T02:33:12.112Z,100.00
2023-01-30T02:35:54.221Z,100.00
2023-01-30T02:38:36.228Z,100.00
2023-01-30T02:41:20.267Z,100.00
2023-01-30T02:44:00.106Z,100.00
2023-01-30T02:46:39.331Z,100.00
2023-01-30T02:49:14.572Z,100.00
2023-01-30T02:51:46.038Z,100.00
2023-01-30T02:54:15.671Z,100.00
2023-01-30T02:56:46.475Z,100.00
2023-01-30T02:59:21.192Z,100.00
2023-01-30T03:02:18.346Z,100.00
2023-01-30T03:05:07.574Z,100.00
2023-01-30T03:07:44.907Z,100.00
2023-01-30T03:10:32.103Z,100.00
2023-01-30T03:13:10.326Z,100.00
2023-01-30T03:15:46.646Z,100.00
2023-01-30T03:18:15.987Z,100.00
2023-01-30T03:20:45.509Z,100.00
2023-01-30T03:23:13.366Z,100.00
2023-01-30T03:25:46.074Z,100.00
2023-01-30T03:28:19.883Z,100.00
2023-01-30T03:30:47.925Z,100.00
2023-01-30T03:33:15.618Z,100.00
2023-01-30T03:35:45.016Z,100.00
2023-01-30T03:38:12.780Z,100.00
2023-01-30T03:40:40.735Z,100.00
2023-01-30T03:43:08.281Z,100.00
2023-01-30T03:45:36.210Z,100.00
2023-01-30T03:48:04.183Z,100.00
2023-01-30T03:50:31.936Z,100.00
2023-01-30T03:53:00.871Z,100.00
2023-01-30T03:55:28.443Z,100.00
2023-01-30T03:57:57.449Z,100.00
2023-01-30T04:00:25.201Z,100.00
2023-01-30T04:02:53.149Z,100.00
2023-01-30T04:05:21.215Z,100.00
2023-01-30T04:07:50.431Z,100.00
2023-01-30T04:10:19.609Z,100.00
2023-01-30T04:12:47.578Z,100.00
2023-01-30T04:15:15.427Z,100.00
2023-01-30T04:17:43.674Z,100.00
2023-01-30T04:20:11.693Z,100.00
2023-01-30T04:22:39.409Z,100.00
2023-01-30T04:25:07.571Z,100.00
2023-01-30T04:27:36.586Z,100.00
2023-01-30T04:30:05.266Z,100.00
2023-01-30T04:32:32.967Z,100.00
2023-01-30T04:35:01.925Z,100.00
2023-01-30T04:37:29.467Z,100.00
2023-01-30T04:39:57.097Z,100.00
2023-01-30T04:42:24.769Z,100.00
2023-01-30T04:44:53.946Z,100.00
2023-01-30T04:47:21.509Z,100.00
2023-01-30T04:49:49.093Z,100.00
2023-01-30T04:52:16.936Z,100.00
2023-01-30T04:54:44.548Z,100.00
2023-01-30T04:57:12.178Z,100.00
2023-01-30T04:59:39.829Z,100.00
2023-01-30T05:02:08.877Z,100.00
2023-01-30T05:04:37.496Z,100.00
2023-01-30T05:07:05.712Z,100.00
2023-01-30T05:09:33.315Z,100.00
2023-01-30T05:12:01.075Z,100.00
2023-01-30T05:14:28.634Z,100.00
2023-01-30T05:16:56.315Z,100.00
2023-01-30T05:19:25.288Z,100.00
2023-01-30T05:21:53.115Z,100.00
2023-01-30T05:24:20.802Z,100.00
2023-01-30T05:26:48.461Z,100.00
2023-01-30T05:29:16.248Z,100.00
2023-01-30T05:31:43.945Z,100.00
2023-01-30T05:34:12.611Z,100.00
2023-01-30T05:36:41.627Z,100.00
2023-01-30T05:39:09.596Z,100.00
2023-01-30T05:41:37.374Z,100.00
2023-01-30T05:44:05.375Z,100.00
2023-01-30T05:46:33.040Z,100.00
2023-01-30T05:49:00.737Z,100.00
2023-01-30T05:51:28.487Z,100.00
2023-01-30T05:53:57.483Z,100.00
2023-01-30T05:56:25.168Z,100.00
2023-01-30T05:58:54.495Z,100.00
2023-01-30T06:01:24.587Z,100.00
2023-01-30T06:03:53.196Z,100.00
2023-01-30T06:06:21.983Z,100.00
2023-01-30T06:08:53.435Z,100.00
2023-01-30T06:11:25.409Z,100.00
2023-01-30T06:13:53.258Z,100.00
2023-01-30T06:16:21.267Z,100.00
2023-01-30T06:18:49.155Z,100.00
2023-01-30T06:21:17.966Z,100.00
2023-01-30T06:23:46.839Z,100.00
2023-01-30T06:26:14.560Z,100.00
2023-01-30T06:28:47.189Z,100.00
2023-01-30T06:31:15.152Z,100.00
2023-01-30T06:33:48.535Z,100.00
2023-01-30T06:36:17.458Z,100.00
2023-01-30T06:38:45.403Z,100.00
2023-01-30T06:41:13.160Z,100.00
2023-01-30T06:43:43.296Z,100.00
2023-01-30T06:46:12.222Z,100.00
2023-01-30T06:48:40.144Z,100.00
2023-01-30T06:51:08.013Z,100.00
2023-01-30T06:53:35.666Z,100.00
2023-01-30T06:56:03.643Z,100.00
2023-01-30T06:58:31.527Z,100.00
2023-01-30T07:01:01.600Z,100.00
2023-01-30T07:03:34.034Z,100.00
2023-01-30T07:06:01.784Z,100.00
2023-01-30T07:08:29.960Z,100.00
2023-01-30T07:10:58.303Z,100.00
2023-01-30T07:13:25.854Z,100.00
2023-01-30T07:15:55.889Z,100.00
2023-01-30T07:18:24.979Z,100.00
2023-01-30T07:20:53.956Z,100.00
2023-01-30T07:23:26.016Z,100.00
2023-01-30T07:25:55.931Z,100.00
2023-01-30T07:28:23.738Z,100.00
2023-01-30T07:30:54.118Z,100.00
2023-01-30T07:33:21.936Z,100.00
2023-01-30T07:35:51.195Z,100.00
2023-01-30T07:38:18.846Z,100.00
2023-01-30T07:40:46.571Z,100.00
2023-01-30T07:43:14.945Z,100.00
2023-01-30T07:45:45.573Z,100.00
2023-01-30T07:48:15.633Z,100.00
2023-01-30T07:53:27.180Z,100.00
2023-01-30T07:55:54.738Z,100.00
2023-01-30T07:58:22.605Z,100.00
2023-01-30T08:00:50.252Z,100.00
2023-01-30T08:03:21.141Z,100.00
2023-01-30T08:05:48.698Z,100.00
2023-01-30T08:08:16.526Z,100.00
2023-01-30T08:10:48.763Z,100.00
2023-01-30T08:13:16.840Z,100.00
2023-01-30T08:15:44.531Z,100.00
2023-01-30T08:18:12.315Z,100.00
2023-01-30T08:20:39.958Z,100.00
2023-01-30T08:23:08.540Z,100.00
2023-01-30T08:25:37.797Z,100.00
2023-01-30T08:28:06.870Z,100.00
2023-01-30T08:30:34.517Z,100.00
2023-01-30T08:33:02.122Z,100.00
2023-01-30T08:35:29.768Z,100.00
2023-01-30T08:37:57.622Z,100.00
2023-01-30T08:40:25.279Z,100.00
2023-01-30T08:42:52.903Z,100.00
2023-01-30T08:45:21.895Z,100.00
2023-01-30T08:47:49.703Z,100.00
2023-01-30T08:50:17.840Z,100.00
2023-01-30T08:52:45.665Z,100.00
2023-01-30T08:55:13.331Z,100.00
2023-01-30T08:57:40.907Z,100.00
2023-01-30T09:00:11.520Z,100.00
2023-01-30T09:02:41.093Z,100.00
2023-01-30T09:05:10.013Z,100.00
2023-01-30T09:07:40.063Z,100.00
2023-01-30T09:10:09.286Z,100.00
2023-01-30T09:12:37.228Z,100.00
2023-01-30T09:15:07.358Z,100.00
2023-01-30T09:17:42.052Z,100.00
2023-01-30T09:20:12.689Z,100.00
2023-01-30T09:22:41.932Z,100.00
2023-01-30T09:25:09.788Z,100.00
2023-01-30T09:27:37.361Z,100.00
2023-01-30T09:30:06.983Z,100.00
2023-01-30T09:32:34.539Z,100.00
2023-01-30T09:35:02.172Z,100.00
2023-01-30T09:37:31.199Z,100.00
2023-01-30T09:39:58.868Z,100.00
2023-01-30T09:42:54.813Z,100.00
2023-01-30T09:45:51.816Z,100.00
2023-01-30T09:48:29.686Z,100.00
2023-01-30T09:51:19.474Z,100.00
2023-01-30T09:54:13.315Z,93.55
2023-01-30T09:56:43.176Z,89.09
2023-01-30T09:59:23.423Z,85.11
2023-01-30T10:02:01.124Z,87.48
2023-01-30T10:04:34.616Z,90.70
2023-01-30T10:07:16.569Z,91.22
2023-01-30T10:09:59.432Z,85.50
2023-01-30T10:12:42.724Z,82.38
2023-01-30T10:15:32.324Z,83.02
2023-01-30T10:18:19.643Z,81.77
2023-01-30T10:21:00.340Z,81.18
2023-01-30T10:23:52.990Z,83.78
2023-01-30T10:26:26.800Z,88.46
2023-01-30T10:29:07.239Z,87.35
2023-01-30T10:31:43.877Z,80.79
2023-01-30T10:34:19.910Z,81.17
2023-01-30T10:36:55.937Z,84.75
2023-01-30T10:39:36.896Z,73.10
2023-01-30T10:42:12.386Z,79.36
2023-01-30T10:44:41.180Z,77.63
2023-01-30T10:47:34.710Z,73.69
2023-01-30T10:50:16.676Z,75.75
2023-01-30T10:52:56.537Z,69.19
2023-01-30T10:55:37.678Z,64.19
2023-01-30T10:58:17.428Z,57.75
2023-01-30T11:00:56.384Z,56.38
2023-01-30T11:03:35.400Z,52.97
2023-01-30T11:06:10.429Z,50.01
2023-01-30T11:08:38.543Z,48.60
2023-01-30T11:11:29.290Z,47.24
2023-01-30T11:14:06.434Z,45.39
2023-01-30T11:16:46.872Z,44.01
2023-01-30T11:19:20.821Z,42.99
2023-01-30T11:21:53.590Z,41.87
2023-01-30T11:24:24.297Z,41.15
2023-01-30T11:26:51.973Z,42.79
2023-01-30T11:29:29.664Z,42.45
2023-01-30T11:32:03.946Z,41.69
2023-01-30T11:34:32.137Z,41.28
2023-01-30T11:37:26.832Z,42.57
2023-01-30T11:39:54.536Z,43.17
2023-01-30T11:42:31.565Z,41.77
2023-01-30T11:45:16.313Z,41.84
2023-01-30T11:47:57.782Z,42.08
2023-01-30T11:50:35.238Z,41.16
2023-01-30T11:53:14.343Z,40.89
2023-01-30T11:55:52.950Z,40.67
2023-01-30T11:58:33.135Z,41.79
2023-01-30T12:01:03.206Z,43.08
2023-01-30T12:03:32.627Z,42.19
2023-01-30T12:06:00.414Z,42.01
2023-01-30T12:08:43.103Z,41.73
2023-01-30T12:11:29.819Z,40.88
2023-01-30T12:14:12.864Z,40.97
2023-01-30T12:16:57.510Z,40.30
2023-01-30T12:19:39.913Z,40.74
2023-01-30T12:22:21.197Z,40.38
2023-01-30T12:24:58.533Z,41.57
2023-01-30T12:27:42.768Z,42.45
2023-01-30T12:30:25.238Z,44.02
2023-01-30T12:36:00.251Z,44.45
2023-01-30T12:38:46.280Z,44.50
2023-01-30T12:41:30.587Z,45.11
2023-01-30T12:44:17.505Z,44.08
2023-01-30T12:47:04.145Z,42.58
2023-01-30T12:49:54.663Z,43.32
2023-01-30T12:52:51.759Z,45.50
2023-01-30T12:55:32.401Z,47.98
2023-01-30T12:58:10.532Z,48.07
2023-01-30T13:00:56.415Z,47.17
2023-01-30T13:03:35.726Z,47.35
2023-01-30T13:06:24.222Z,46.35
2023-01-30T13:09:09.762Z,47.19
2023-01-30T13:11:48.040Z,47.67
2023-01-30T13:14:25.958Z,47.87
2023-01-30T13:17:15.401Z,45.96
2023-01-30T13:19:51.983Z,45.43
2023-01-30T13:22:28.131Z,45.29
2023-01-30T13:25:06.164Z,44.71
2023-01-30T13:27:38.732Z,46.15
2023-01-30T13:30:15.996Z,45.52
2023-01-30T13:32:49.809Z,44.35
2023-01-30T13:35:24.154Z,47.03
2023-01-30T13:37:55.099Z,48.47
2023-01-30T13:40:27.686Z,52.66
2023-01-30T13:43:02.013Z,55.11
2023-01-30T13:45:37.953Z,56.02
2023-01-30T13:48:24.724Z,54.71
2023-01-30T13:51:15.080Z,58.54
2023-01-30T13:53:53.937Z,61.29
2023-01-30T13:56:41.827Z,63.03
2023-01-30T13:59:25.138Z,67.36
2023-01-30T14:02:19.155Z,63.09
2023-01-30T14:04:49.620Z,59.00
2023-01-30T14:07:24.573Z,57.22
2023-01-30T14:10:13.860Z,56.06
2023-01-30T14:12:44.861Z,56.09
2023-01-30T14:15:25.846Z,58.77
2023-01-30T14:18:03.647Z,57.61
2023-01-30T14:20:34.385Z,60.70
2023-01-30T14:23:06.487Z,58.62
2023-01-30T14:25:47.766Z,61.05
2023-01-30T14:28:48.756Z,62.66
2023-01-30T14:31:50.127Z,63.99
2023-01-30T14:35:16.517Z,65.42
2023-01-30T14:37:50.370Z,70.61
2023-01-30T14:40:35.822Z,72.55
2023-01-30T14:43:36.582Z,74.33
2023-01-30T14:46:08.500Z,71.81
2023-01-30T14:51:21.079Z,80.26
2023-01-30T14:53:57.051Z,82.42
2023-01-30T14:56:44.960Z,78.59
2023-01-30T14:59:26.328Z,74.61
2023-01-30T15:02:07.261Z,80.12
2023-01-30T15:04:44.062Z,78.58
2023-01-30T15:07:17.364Z,74.93
2023-01-30T15:09:55.296Z,79.75
2023-01-30T15:12:45.509Z,80.46
2023-01-30T15:15:37.612Z,80.28
2023-01-30T15:18:35.987Z,81.48
2023-01-30T15:21:33.948Z,83.51
2023-01-30T15:24:25.461Z,83.84
2023-01-30T15:27:09.399Z,86.74
2023-01-30T15:30:18.359Z,84.65
2023-01-30T15:32:49.063Z,78.04
2023-01-30T15:35:23.501Z,75.90
2023-01-30T15:37:53.518Z,78.74
2023-01-30T15:40:24.878Z,83.88
2023-01-30T15:43:08.779Z,82.05
2023-01-30T15:45:46.631Z,80.67
2023-01-30T15:48:41.471Z,85.43
2023-01-30T15:51:13.587Z,88.55
2023-01-30T15:53:44.191Z,89.42
2023-01-30T15:56:19.149Z,91.85
2023-01-30T15:58:47.346Z,94.85
2023-01-30T16:01:20.262Z,91.02
2023-01-30T16:03:50.716Z,90.52
2023-01-30T16:06:24.704Z,90.38
2023-01-30T16:08:57.785Z,94.26
2023-01-30T16:11:39.497Z,92.15
2023-01-30T16:14:12.826Z,92.68
2023-01-30T16:16:48.310Z,96.11
2023-01-30T16:19:26.208Z,100.00
2023-01-30T16:21:59.847Z,100.00
2023-01-30T16:24:29.474Z,100.00
2023-01-30T16:27:01.889Z,100.00
2023-01-30T16:29:33.442Z,100.00
2023-01-30T16:32:01.424Z,100.00
2023-01-30T16:34:33.894Z,100.00
2023-01-30T16:37:05.522Z,100.00
2023-01-30T16:39:35.105Z,100.00
2023-01-30T16:42:17.120Z,100.00
2023-01-30T16:44:44.769Z,100.00
2023-01-30T16:47:24.793Z,100.00
2023-01-30T16:49:56.397Z,100.00
2023-01-30T16:52:31.249Z,100.00
2023-01-30T16:55:02.833Z,100.00
2023-01-30T16:57:37.683Z,100.00
2023-01-30T17:00:19.501Z,100.00
2023-01-30T17:02:54.124Z,100.00
2023-01-30T17:05:26.625Z,100.00
2023-01-30T17:07:55.374Z,100.00
2023-01-30T17:11:04.922Z,100.00
2023-01-30T17:13:37.623Z,100.00
2023-01-30T17:16:30.488Z,100.00
2023-01-30T17:18:58.379Z,100.00
2023-01-30T17:21:31.492Z,100.00
2023-01-30T17:24:02.346Z,100.00
2023-01-30T17:26:30.804Z,100.00
2023-01-30T17:28:59.105Z,100.00
2023-01-30T17:31:27.051Z,100.00
2023-01-30T17:33:54.850Z,100.00
2023-01-30T17:36:27.873Z,100.00
2023-01-30T17:38:57.893Z,100.00
2023-01-30T17:41:28.601Z,100.00
2023-01-30T17:43:57.165Z,100.00
2023-01-30T17:46:33.433Z,100.00
2023-01-30T17:49:01.138Z,100.00
2023-01-30T17:51:31.501Z,100.00
2023-01-30T17:53:59.191Z,100.00
2023-01-30T17:56:32.765Z,100.00
2023-01-30T17:59:00.426Z,100.00
2023-01-30T18:01:28.164Z,100.00
2023-01-30T18:03:55.959Z,100.00
2023-01-30T18:06:24.432Z,100.00
2023-01-30T18:08:53.573Z,100.00
2023-01-30T18:11:22.687Z,100.00
2023-01-30T18:13:51.228Z,100.00
2023-01-30T18:16:23.008Z,100.00
2023-01-30T18:18:51.279Z,100.00
2023-01-30T18:21:18.924Z,100.00
2023-01-30T18:23:46.807Z,100.00
2023-01-30T18:26:16.729Z,100.00
2023-01-30T18:28:44.835Z,100.00
2023-01-30T18:31:12.634Z,99.51
2023-01-30T18:33:41.312Z,99.06
2023-01-30T18:36:11.565Z,98.11
2023-01-30T18:38:43.193Z,97.24
2023-01-30T18:41:13.700Z,100.00
2023-01-30T18:43:44.265Z,99.14
2023-01-30T18:46:13.690Z,100.00
2023-01-30T18:48:42.617Z,100.00
2023-01-30T18:51:12.101Z,100.00
2023-01-30T18:53:40.830Z,100.00
2023-01-30T18:56:10.506Z,100.00
2023-01-30T18:58:38.294Z,100.00
2023-01-30T19:01:13.987Z,100.00
2023-01-30T19:03:42.428Z,100.00
2023-01-30T19:06:11.958Z,100.00
2023-01-30T19:08:39.901Z,100.00
2023-01-30T19:11:09.792Z,100.00
2023-01-30T19:13:37.526Z,100.00
2023-01-30T19:16:06.056Z,100.00
2023-01-30T19:18:35.388Z,100.00
2023-01-30T19:21:03.775Z,100.00
2023-01-30T19:23:31.478Z,100.00
2023-01-30T19:25:59.922Z,100.00
2023-01-30T19:28:30.781Z,100.00
2023-01-30T19:30:58.521Z,100.00
2023-01-30T19:33:26.135Z,100.00
2023-01-30T19:35:55.537Z,100.00
2023-01-30T19:38:23.913Z,100.00
2023-01-30T19:40:51.549Z,100.00
2023-01-30T19:43:19.262Z,100.00
2023-01-30T19:45:57.560Z,100.00
2023-01-30T19:48:26.095Z,100.00
2023-01-30T19:50:58.146Z,100.00
2023-01-30T19:53:25.779Z,100.00
2023-01-30T19:55:54.057Z,100.00
2023-01-30T19:58:21.707Z,100.00
2023-01-30T20:00:49.601Z,100.00
2023-01-30T20:03:17.550Z,100.00
2023-01-30T20:05:45.382Z,100.00
2023-01-30T20:08:30.519Z,100.00
2023-01-30T20:11:03.980Z,100.00
2023-01-30T20:13:33.569Z,100.00
2023-01-30T20:16:06.299Z,100.00
2023-01-30T20:18:35.742Z,100.00
2023-01-30T20:21:07.649Z,100.00
2023-01-30T20:23:39.759Z,100.00
2023-01-30T20:26:12.854Z,100.00
2023-01-30T20:28:42.589Z,100.00
2023-01-30T20:31:12.635Z,100.00
2023-01-30T20:33:41.124Z,100.00
2023-01-30T20:36:10.936Z,100.00
2023-01-30T20:38:41.810Z,100.00
2023-01-30T20:41:11.648Z,100.00
2023-01-30T20:43:42.827Z,100.00
2023-01-30T20:46:13.095Z,100.00
2023-01-30T20:48:41.197Z,100.00
2023-01-30T20:51:11.465Z,100.00
2023-01-30T20:53:47.837Z,100.00
2023-01-30T20:56:17.580Z,100.00
2023-01-30T20:58:46.524Z,100.00
2023-01-30T21:01:18.228Z,100.00
2023-01-30T21:03:47.769Z,100.00
2023-01-30T21:06:37.153Z,100.00
2023-01-30T21:09:07.923Z,100.00
2023-01-30T21:11:35.671Z,100.00
2023-01-30T21:14:04.169Z,100.00
2023-01-30T21:16:35.017Z,100.00
2023-01-30T21:19:06.479Z,100.00
2023-01-30T21:21:39.195Z,100.00
2023-01-30T21:24:13.234Z,100.00
2023-01-30T21:26:44.954Z,100.00
2023-01-30T21:29:14.356Z,100.00
2023-01-30T21:31:43.270Z,100.00
2023-01-30T21:34:14.405Z,100.00
2023-01-30T21:36:42.251Z,100.00
2023-01-30T21:39:13.565Z,100.00
2023-01-30T21:41:46.134Z,100.00
2023-01-30T21:44:14.267Z,100.00
2023-01-30T21:46:44.761Z,100.00
2023-01-30T21:49:13.571Z,100.00
2023-01-30T21:51:42.532Z,100.00
2023-01-30T21:54:12.535Z,100.00
2023-01-30T21:56:41.211Z,100.00
2023-01-30T21:59:09.527Z,100.00
2023-01-30T22:01:41.042Z,100.00
2023-01-30T22:04:11.078Z,100.00
2023-01-30T22:06:39.894Z,100.00
2023-01-30T22:09:08.352Z,100.00
2023-01-30T22:11:38.988Z,100.00
2023-01-30T22:14:06.882Z,100.00
2023-01-30T22:16:34.631Z,100.00
2023-01-30T22:19:04.667Z,100.00
2023-01-30T22:21:34.659Z,100.00
2023-01-30T22:24:05.053Z,100.00
2023-01-30T22:26:32.926Z,100.00
2023-01-30T22:29:04.406Z,100.00
2023-01-30T22:31:36.399Z,100.00
2023-01-30T22:34:04.659Z,100.00
2023-01-30T22:36:34.055Z,100.00
2023-01-30T22:39:08.277Z,100.00
2023-01-30T22:41:36.366Z,100.00
2023-01-30T22:44:09.733Z,100.00
2023-01-30T22:46:39.789Z,100.00
2023-01-30T22:49:09.381Z,100.00
2023-01-30T22:51:39.543Z,100.00
2023-01-30T22:54:10.137Z,100.00
2023-01-30T22:56:39.848Z,100.00
2023-01-30T22:59:10.309Z,100.00
2023-01-30T23:01:39.658Z,100.00
2023-01-30T23:04:13.092Z,100.00
2023-01-30T23:06:41.841Z,100.00
2023-01-30T23:09:13.194Z,100.00
2023-01-30T23:11:43.287Z,100.00
2023-01-30T23:14:14.380Z,100.00
2023-01-30T23:16:44.197Z,100.00
2023-01-30T23:19:13.339Z,100.00
2023-01-30T23:21:44.113Z,100.00
2023-01-30T23:24:14.392Z,100.00
2023-01-30T23:26:47.166Z,100.00
2023-01-30T23:29:20.090Z,100.00
2023-01-30T23:31:48.392Z,100.00
2023-01-30T23:34:18.907Z,100.00
2023-01-30T23:36:46.765Z,100.00
2023-01-30T23:39:15.161Z,100.00
2023-01-30T23:41:44.229Z,100.00
2023-01-30T23:44:11.888Z,100.00
2023-01-30T23:46:42.487Z,100.00
2023-01-30T23:49:13.894Z,100.00
2023-01-30T23:51:44.221Z,100.00
2023-01-30T23:54:13.486Z,100.00
2023-01-30T23:56:44.931Z,100.00
2023-01-30T23:59:12.866Z,100.00
